sensor_id;sensor_type;location;lat;lon;timestamp;P1;durP1;ratioP1;P2;durP2;ratioP2
41115;SDS011;26861;51.824;4.682;2023-04-24T00:01:48;0.77;;;0.17;;
41115;SDS011;26861;51.824;4.682;2023-04-24T00:04:15;0.50;;;0.20;;
41115;SDS011;26861;51.824;4.682;2023-04-24T00:06:42;0.80;;;0.20;;
41115;SDS011;26861;51.824;4.682;2023-04-24T00:09:08;0.25;;;0.15;;
41115;SDS011;26861;51.824;4.682;2023-04-24T00:11:37;0.20;;;0.10;;
41115;SDS011;26861;51.824;4.682;2023-04-24T00:14:02;0.30;;;0.20;;
41115;SDS011;26861;51.824;4.682;2023-04-24T00:16:28;0.60;;;0.10;;
41115;SDS011;26861;51.824;4.682;2023-04-24T00:18:54;0.30;;;0.13;;
41115;SDS011;26861;51.824;4.682;2023-04-24T00:21:20;0.25;;;0.20;;
41115;SDS011;26861;51.824;4.682;2023-04-24T00:23:46;0.70;;;0.25;;
41115;SDS011;26861;51.824;4.682;2023-04-24T00:26:13;0.40;;;0.10;;
41115;SDS011;26861;51.824;4.682;2023-04-24T00:28:39;0.77;;;0.25;;
41115;SDS011;26861;51.824;4.682;2023-04-24T00:31:05;0.10;;;0.10;;
41115;SDS011;26861;51.824;4.682;2023-04-24T00:33:31;0.35;;;0.20;;
41115;SDS011;26861;51.824;4.682;2023-04-24T00:35:57;0.10;;;0.10;;
41115;SDS011;26861;51.824;4.682;2023-04-24T00:38:22;0.95;;;0.25;;
41115;SDS011;26861;51.824;4.682;2023-04-24T00:40:48;0.30;;;0.10;;
41115;SDS011;26861;51.824;4.682;2023-04-24T00:43:18;0.20;;;0.20;;
41115;SDS011;26861;51.824;4.682;2023-04-24T00:45:45;0.75;;;0.13;;
41115;SDS011;26861;51.824;4.682;2023-04-24T00:48:11;0.20;;;0.17;;
41115;SDS011;26861;51.824;4.682;2023-04-24T00:50:37;1.38;;;0.20;;
41115;SDS011;26861;51.824;4.682;2023-04-24T00:53:03;0.20;;;0.10;;
41115;SDS011;26861;51.824;4.682;2023-04-24T00:55:29;0.22;;;0.13;;
41115;SDS011;26861;51.824;4.682;2023-04-24T00:57:55;0.20;;;0.10;;
41115;SDS011;26861;51.824;4.682;2023-04-24T01:00:21;0.43;;;0.13;;
41115;SDS011;26861;51.824;4.682;2023-04-24T01:02:47;0.10;;;0.10;;
41115;SDS011;26861;51.824;4.682;2023-04-24T01:05:13;0.80;;;0.20;;
41115;SDS011;26861;51.824;4.682;2023-04-24T01:07:43;0.60;;;0.20;;
41115;SDS011;26861;51.824;4.682;2023-04-24T01:10:12;0.10;;;0.10;;
41115;SDS011;26861;51.824;4.682;2023-04-24T01:12:39;0.88;;;0.25;;
41115;SDS011;26861;51.824;4.682;2023-04-24T01:15:04;0.15;;;0.10;;
41115;SDS011;26861;51.824;4.682;2023-04-24T01:17:31;0.10;;;0.10;;
41115;SDS011;26861;51.824;4.682;2023-04-24T01:19:57;0.57;;;0.10;;
41115;SDS011;26861;51.824;4.682;2023-04-24T01:22:24;0.30;;;0.20;;
41115;SDS011;26861;51.824;4.682;2023-04-24T01:24:51;0.20;;;0.10;;
41115;SDS011;26861;51.824;4.682;2023-04-24T01:27:17;0.50;;;0.10;;
41115;SDS011;26861;51.824;4.682;2023-04-24T01:29:43;0.20;;;0.20;;
41115;SDS011;26861;51.824;4.682;2023-04-24T01:32:09;1.33;;;0.13;;
41115;SDS011;26861;51.824;4.682;2023-04-24T01:34:35;0.82;;;0.20;;
41115;SDS011;26861;51.824;4.682;2023-04-24T01:37:02;0.30;;;0.10;;
41115;SDS011;26861;51.824;4.682;2023-04-24T01:39:28;0.32;;;0.20;;
41115;SDS011;26861;51.824;4.682;2023-04-24T01:41:54;0.95;;;0.20;;
41115;SDS011;26861;51.824;4.682;2023-04-24T01:44:20;0.25;;;0.20;;
41115;SDS011;26861;51.824;4.682;2023-04-24T01:46:46;0.52;;;0.30;;
41115;SDS011;26861;51.824;4.682;2023-04-24T01:49:12;0.13;;;0.10;;
41115;SDS011;26861;51.824;4.682;2023-04-24T01:51:38;0.65;;;0.22;;
41115;SDS011;26861;51.824;4.682;2023-04-24T01:54:04;0.43;;;0.20;;
41115;SDS011;26861;51.824;4.682;2023-04-24T01:56:30;0.22;;;0.20;;
41115;SDS011;26861;51.824;4.682;2023-04-24T01:59:02;0.90;;;0.30;;
41115;SDS011;26861;51.824;4.682;2023-04-24T02:01:32;2.08;;;0.35;;
41115;SDS011;26861;51.824;4.682;2023-04-24T02:04:00;0.65;;;0.65;;
41115;SDS011;26861;51.824;4.682;2023-04-24T02:06:26;1.10;;;0.35;;
41115;SDS011;26861;51.824;4.682;2023-04-24T02:08:52;1.35;;;0.40;;
41115;SDS011;26861;51.824;4.682;2023-04-24T02:11:18;0.30;;;0.20;;
41115;SDS011;26861;51.824;4.682;2023-04-24T02:13:44;0.85;;;0.40;;
41115;SDS011;26861;51.824;4.682;2023-04-24T02:16:10;0.73;;;0.30;;
41115;SDS011;26861;51.824;4.682;2023-04-24T02:18:36;1.05;;;0.50;;
41115;SDS011;26861;51.824;4.682;2023-04-24T02:21:02;1.00;;;0.40;;
41115;SDS011;26861;51.824;4.682;2023-04-24T02:23:28;1.00;;;0.50;;
41115;SDS011;26861;51.824;4.682;2023-04-24T02:25:54;1.05;;;0.30;;
41115;SDS011;26861;51.824;4.682;2023-04-24T02:28:20;0.57;;;0.30;;
41115;SDS011;26861;51.824;4.682;2023-04-24T02:30:46;0.50;;;0.32;;
41115;SDS011;26861;51.824;4.682;2023-04-24T02:33:13;0.40;;;0.30;;
41115;SDS011;26861;51.824;4.682;2023-04-24T02:35:39;1.30;;;0.50;;
41115;SDS011;26861;51.824;4.682;2023-04-24T02:38:05;0.50;;;0.40;;
41115;SDS011;26861;51.824;4.682;2023-04-24T02:40:31;0.35;;;0.28;;
41115;SDS011;26861;51.824;4.682;2023-04-24T02:42:58;0.57;;;0.30;;
41115;SDS011;26861;51.824;4.682;2023-04-24T02:45:24;1.42;;;0.43;;
41115;SDS011;26861;51.824;4.682;2023-04-24T02:47:50;0.50;;;0.38;;
41115;SDS011;26861;51.824;4.682;2023-04-24T02:50:16;1.95;;;0.40;;
41115;SDS011;26861;51.824;4.682;2023-04-24T02:52:42;1.80;;;0.70;;
41115;SDS011;26861;51.824;4.682;2023-04-24T02:55:08;1.95;;;0.30;;
41115;SDS011;26861;51.824;4.682;2023-04-24T02:57:34;0.90;;;0.45;;
41115;SDS011;26861;51.824;4.682;2023-04-24T03:00:00;1.50;;;0.30;;
41115;SDS011;26861;51.824;4.682;2023-04-24T03:02:26;0.85;;;0.40;;
41115;SDS011;26861;51.824;4.682;2023-04-24T03:04:53;0.60;;;0.40;;
41115;SDS011;26861;51.824;4.682;2023-04-24T03:07:18;0.65;;;0.40;;
41115;SDS011;26861;51.824;4.682;2023-04-24T03:09:45;0.90;;;0.50;;
41115;SDS011;26861;51.824;4.682;2023-04-24T03:12:11;1.40;;;0.40;;
41115;SDS011;26861;51.824;4.682;2023-04-24T03:14:37;0.90;;;0.40;;
41115;SDS011;26861;51.824;4.682;2023-04-24T03:17:03;0.95;;;0.45;;
41115;SDS011;26861;51.824;4.682;2023-04-24T03:19:29;1.55;;;0.40;;
41115;SDS011;26861;51.824;4.682;2023-04-24T03:21:55;2.72;;;0.52;;
41115;SDS011;26861;51.824;4.682;2023-04-24T03:24:20;0.82;;;0.40;;
41115;SDS011;26861;51.824;4.682;2023-04-24T03:26:47;0.63;;;0.20;;
41115;SDS011;26861;51.824;4.682;2023-04-24T03:29:13;0.55;;;0.30;;
41115;SDS011;26861;51.824;4.682;2023-04-24T03:31:39;0.30;;;0.30;;
41115;SDS011;26861;51.824;4.682;2023-04-24T03:34:04;1.45;;;0.40;;
41115;SDS011;26861;51.824;4.682;2023-04-24T03:36:30;1.63;;;0.65;;
41115;SDS011;26861;51.824;4.682;2023-04-24T03:38:56;0.90;;;0.30;;
41115;SDS011;26861;51.824;4.682;2023-04-24T03:41:22;1.08;;;0.52;;
41115;SDS011;26861;51.824;4.682;2023-04-24T03:43:48;1.13;;;0.30;;
41115;SDS011;26861;51.824;4.682;2023-04-24T03:46:13;0.70;;;0.30;;
41115;SDS011;26861;51.824;4.682;2023-04-24T03:48:40;0.30;;;0.22;;
41115;SDS011;26861;51.824;4.682;2023-04-24T03:51:06;1.65;;;0.40;;
41115;SDS011;26861;51.824;4.682;2023-04-24T03:53:32;0.52;;;0.22;;
41115;SDS011;26861;51.824;4.682;2023-04-24T03:55:57;1.02;;;0.30;;
41115;SDS011;26861;51.824;4.682;2023-04-24T03:58:23;0.40;;;0.20;;
41115;SDS011;26861;51.824;4.682;2023-04-24T04:03:30;1.05;;;0.20;;
41115;SDS011;26861;51.824;4.682;2023-04-24T04:05:55;0.68;;;0.38;;
41115;SDS011;26861;51.824;4.682;2023-04-24T04:08:21;0.60;;;0.30;;
41115;SDS011;26861;51.824;4.682;2023-04-24T04:10:47;0.68;;;0.20;;
41115;SDS011;26861;51.824;4.682;2023-04-24T04:13:13;0.40;;;0.35;;
41115;SDS011;26861;51.824;4.682;2023-04-24T04:15:38;0.25;;;0.20;;
41115;SDS011;26861;51.824;4.682;2023-04-24T04:18:04;1.02;;;0.28;;
41115;SDS011;26861;51.824;4.682;2023-04-24T04:20:30;0.93;;;0.30;;
41115;SDS011;26861;51.824;4.682;2023-04-24T04:22:56;0.77;;;0.40;;
41115;SDS011;26861;51.824;4.682;2023-04-24T04:25:21;1.05;;;0.35;;
41115;SDS011;26861;51.824;4.682;2023-04-24T04:27:48;0.20;;;0.20;;
41115;SDS011;26861;51.824;4.682;2023-04-24T04:30:14;0.80;;;0.30;;
41115;SDS011;26861;51.824;4.682;2023-04-24T04:32:39;0.47;;;0.20;;
41115;SDS011;26861;51.824;4.682;2023-04-24T04:35:05;0.50;;;0.43;;
41115;SDS011;26861;51.824;4.682;2023-04-24T04:37:34;0.40;;;0.30;;
41115;SDS011;26861;51.824;4.682;2023-04-24T04:40:00;0.30;;;0.30;;
41115;SDS011;26861;51.824;4.682;2023-04-24T04:42:26;0.10;;;0.10;;
41115;SDS011;26861;51.824;4.682;2023-04-24T04:44:53;0.20;;;0.20;;
41115;SDS011;26861;51.824;4.682;2023-04-24T04:47:20;0.65;;;0.20;;
41115;SDS011;26861;51.824;4.682;2023-04-24T04:52:16;0.60;;;0.20;;
41115;SDS011;26861;51.824;4.682;2023-04-24T04:54:42;0.30;;;0.20;;
41115;SDS011;26861;51.824;4.682;2023-04-24T04:57:08;0.17;;;0.17;;
41115;SDS011;26861;51.824;4.682;2023-04-24T04:59:34;1.42;;;0.20;;
41115;SDS011;26861;51.824;4.682;2023-04-24T05:02:00;0.30;;;0.20;;
41115;SDS011;26861;51.824;4.682;2023-04-24T05:04:26;0.52;;;0.28;;
41115;SDS011;26861;51.824;4.682;2023-04-24T05:06:52;1.77;;;0.20;;
41115;SDS011;26861;51.824;4.682;2023-04-24T05:09:18;0.98;;;0.28;;
41115;SDS011;26861;51.824;4.682;2023-04-24T05:11:44;0.20;;;0.20;;
41115;SDS011;26861;51.824;4.682;2023-04-24T05:14:09;0.88;;;0.40;;
41115;SDS011;26861;51.824;4.682;2023-04-24T05:16:35;0.10;;;0.10;;
41115;SDS011;26861;51.824;4.682;2023-04-24T05:19:02;0.75;;;0.30;;
41115;SDS011;26861;51.824;4.682;2023-04-24T05:21:27;0.60;;;0.30;;
41115;SDS011;26861;51.824;4.682;2023-04-24T05:23:54;0.22;;;0.20;;
41115;SDS011;26861;51.824;4.682;2023-04-24T05:26:19;0.65;;;0.40;;
41115;SDS011;26861;51.824;4.682;2023-04-24T05:28:45;0.30;;;0.30;;
41115;SDS011;26861;51.824;4.682;2023-04-24T05:31:11;2.50;;;0.60;;
41115;SDS011;26861;51.824;4.682;2023-04-24T05:33:37;0.35;;;0.30;;
41115;SDS011;26861;51.824;4.682;2023-04-24T05:36:03;1.55;;;0.20;;
41115;SDS011;26861;51.824;4.682;2023-04-24T05:38:30;0.88;;;0.20;;
41115;SDS011;26861;51.824;4.682;2023-04-24T05:40:56;3.13;;;0.47;;
41115;SDS011;26861;51.824;4.682;2023-04-24T05:43:22;5.00;;;0.68;;
41115;SDS011;26861;51.824;4.682;2023-04-24T05:45:48;1.73;;;0.77;;
41115;SDS011;26861;51.824;4.682;2023-04-24T05:48:14;2.75;;;0.50;;
41115;SDS011;26861;51.824;4.682;2023-04-24T05:50:40;1.50;;;0.50;;
41115;SDS011;26861;51.824;4.682;2023-04-24T05:53:06;3.28;;;0.50;;
41115;SDS011;26861;51.824;4.682;2023-04-24T05:55:32;2.67;;;0.93;;
41115;SDS011;26861;51.824;4.682;2023-04-24T05:57:58;1.20;;;0.50;;
41115;SDS011;26861;51.824;4.682;2023-04-24T06:00:25;1.67;;;0.50;;
41115;SDS011;26861;51.824;4.682;2023-04-24T06:02:51;1.02;;;0.75;;
41115;SDS011;26861;51.824;4.682;2023-04-24T06:05:18;2.47;;;0.52;;
41115;SDS011;26861;51.824;4.682;2023-04-24T06:07:44;1.80;;;0.45;;
41115;SDS011;26861;51.824;4.682;2023-04-24T06:10:09;0.90;;;0.47;;
41115;SDS011;26861;51.824;4.682;2023-04-24T06:12:35;1.77;;;0.80;;
41115;SDS011;26861;51.824;4.682;2023-04-24T06:15:01;3.53;;;0.95;;
41115;SDS011;26861;51.824;4.682;2023-04-24T06:17:27;3.15;;;0.60;;
41115;SDS011;26861;51.824;4.682;2023-04-24T06:19:53;1.60;;;0.50;;
41115;SDS011;26861;51.824;4.682;2023-04-24T06:22:19;0.90;;;0.70;;
41115;SDS011;26861;51.824;4.682;2023-04-24T06:24:44;2.78;;;0.68;;
41115;SDS011;26861;51.824;4.682;2023-04-24T06:27:11;2.42;;;0.90;;
41115;SDS011;26861;51.824;4.682;2023-04-24T06:29:37;2.95;;;0.80;;
41115;SDS011;26861;51.824;4.682;2023-04-24T06:32:03;0.93;;;0.85;;
41115;SDS011;26861;51.824;4.682;2023-04-24T06:34:30;2.75;;;0.95;;
41115;SDS011;26861;51.824;4.682;2023-04-24T06:36:56;3.47;;;0.85;;
41115;SDS011;26861;51.824;4.682;2023-04-24T06:39:22;2.05;;;0.68;;
41115;SDS011;26861;51.824;4.682;2023-04-24T06:41:47;2.03;;;0.73;;
41115;SDS011;26861;51.824;4.682;2023-04-24T06:44:13;1.95;;;1.00;;
41115;SDS011;26861;51.824;4.682;2023-04-24T06:46:40;2.90;;;0.70;;
41115;SDS011;26861;51.824;4.682;2023-04-24T06:49:06;2.60;;;0.70;;
41115;SDS011;26861;51.824;4.682;2023-04-24T06:51:32;5.40;;;1.33;;
41115;SDS011;26861;51.824;4.682;2023-04-24T06:53:58;1.80;;;0.90;;
41115;SDS011;26861;51.824;4.682;2023-04-24T06:56:24;5.88;;;1.17;;
41115;SDS011;26861;51.824;4.682;2023-04-24T06:58:51;1.70;;;0.90;;
41115;SDS011;26861;51.824;4.682;2023-04-24T07:01:16;2.40;;;1.20;;
41115;SDS011;26861;51.824;4.682;2023-04-24T07:03:42;4.13;;;1.00;;
41115;SDS011;26861;51.824;4.682;2023-04-24T07:06:09;4.38;;;1.27;;
41115;SDS011;26861;51.824;4.682;2023-04-24T07:08:36;3.53;;;0.95;;
41115;SDS011;26861;51.824;4.682;2023-04-24T07:11:02;4.18;;;0.70;;
41115;SDS011;26861;51.824;4.682;2023-04-24T07:13:28;5.05;;;1.58;;
41115;SDS011;26861;51.824;4.682;2023-04-24T07:15:55;4.72;;;1.33;;
41115;SDS011;26861;51.824;4.682;2023-04-24T07:18:21;5.22;;;1.70;;
41115;SDS011;26861;51.824;4.682;2023-04-24T07:20:48;5.60;;;1.60;;
41115;SDS011;26861;51.824;4.682;2023-04-24T07:23:15;4.63;;;1.38;;
41115;SDS011;26861;51.824;4.682;2023-04-24T07:25:42;6.18;;;1.23;;
41115;SDS011;26861;51.824;4.682;2023-04-24T07:28:08;5.20;;;1.42;;
41115;SDS011;26861;51.824;4.682;2023-04-24T07:30:33;3.00;;;1.10;;
41115;SDS011;26861;51.824;4.682;2023-04-24T07:32:59;3.47;;;1.33;;
41115;SDS011;26861;51.824;4.682;2023-04-24T07:35:25;4.40;;;1.17;;
41115;SDS011;26861;51.824;4.682;2023-04-24T07:37:54;5.63;;;1.00;;
41115;SDS011;26861;51.824;4.682;2023-04-24T07:40:20;3.38;;;0.95;;
41115;SDS011;26861;51.824;4.682;2023-04-24T07:42:46;4.18;;;1.30;;
41115;SDS011;26861;51.824;4.682;2023-04-24T07:45:13;4.97;;;1.42;;
41115;SDS011;26861;51.824;4.682;2023-04-24T07:47:41;6.55;;;1.33;;
41115;SDS011;26861;51.824;4.682;2023-04-24T07:50:09;4.07;;;1.17;;
41115;SDS011;26861;51.824;4.682;2023-04-24T07:52:35;4.75;;;1.52;;
41115;SDS011;26861;51.824;4.682;2023-04-24T07:55:01;4.72;;;1.50;;
41115;SDS011;26861;51.824;4.682;2023-04-24T07:57:27;4.88;;;1.10;;
41115;SDS011;26861;51.824;4.682;2023-04-24T07:59:53;3.53;;;1.00;;
41115;SDS011;26861;51.824;4.682;2023-04-24T08:02:19;2.83;;;1.27;;
41115;SDS011;26861;51.824;4.682;2023-04-24T08:04:46;6.40;;;1.20;;
41115;SDS011;26861;51.824;4.682;2023-04-24T08:07:12;3.90;;;1.20;;
41115;SDS011;26861;51.824;4.682;2023-04-24T08:09:38;2.92;;;1.13;;
41115;SDS011;26861;51.824;4.682;2023-04-24T08:12:04;4.57;;;1.10;;
41115;SDS011;26861;51.824;4.682;2023-04-24T08:14:30;4.68;;;1.17;;
41115;SDS011;26861;51.824;4.682;2023-04-24T08:16:56;3.45;;;1.10;;
41115;SDS011;26861;51.824;4.682;2023-04-24T08:19:24;2.97;;;1.20;;
41115;SDS011;26861;51.824;4.682;2023-04-24T08:21:50;4.00;;;1.10;;
41115;SDS011;26861;51.824;4.682;2023-04-24T08:24:16;3.25;;;1.05;;
41115;SDS011;26861;51.824;4.682;2023-04-24T08:26:42;3.80;;;0.85;;
41115;SDS011;26861;51.824;4.682;2023-04-24T08:29:09;3.65;;;0.90;;
41115;SDS011;26861;51.824;4.682;2023-04-24T08:31:34;3.95;;;1.48;;
41115;SDS011;26861;51.824;4.682;2023-04-24T08:34:00;3.63;;;1.08;;
41115;SDS011;26861;51.824;4.682;2023-04-24T08:36:26;2.92;;;1.02;;
41115;SDS011;26861;51.824;4.682;2023-04-24T08:38:52;2.92;;;1.05;;
41115;SDS011;26861;51.824;4.682;2023-04-24T08:41:18;3.80;;;0.85;;
41115;SDS011;26861;51.824;4.682;2023-04-24T08:43:47;2.80;;;0.90;;
41115;SDS011;26861;51.824;4.682;2023-04-24T08:46:14;4.53;;;0.70;;
41115;SDS011;26861;51.824;4.682;2023-04-24T08:48:41;2.53;;;0.90;;
41115;SDS011;26861;51.824;4.682;2023-04-24T08:51:07;4.80;;;0.90;;
41115;SDS011;26861;51.824;4.682;2023-04-24T08:53:33;4.30;;;1.27;;
41115;SDS011;26861;51.824;4.682;2023-04-24T08:56:00;2.80;;;1.00;;
41115;SDS011;26861;51.824;4.682;2023-04-24T08:58:26;2.47;;;0.90;;
41115;SDS011;26861;51.824;4.682;2023-04-24T09:00:56;2.80;;;0.77;;
41115;SDS011;26861;51.824;4.682;2023-04-24T09:03:22;2.95;;;1.05;;
41115;SDS011;26861;51.824;4.682;2023-04-24T09:05:48;2.80;;;0.82;;
41115;SDS011;26861;51.824;4.682;2023-04-24T09:08:16;2.67;;;0.90;;
41115;SDS011;26861;51.824;4.682;2023-04-24T09:10:43;5.25;;;1.50;;
41115;SDS011;26861;51.824;4.682;2023-04-24T09:13:09;2.17;;;1.00;;
41115;SDS011;26861;51.824;4.682;2023-04-24T09:15:37;2.08;;;0.98;;
41115;SDS011;26861;51.824;4.682;2023-04-24T09:18:04;1.75;;;0.77;;
41115;SDS011;26861;51.824;4.682;2023-04-24T09:20:30;4.43;;;1.10;;
41115;SDS011;26861;51.824;4.682;2023-04-24T09:22:57;1.80;;;0.80;;
41115;SDS011;26861;51.824;4.682;2023-04-24T09:25:32;2.72;;;0.82;;
41115;SDS011;26861;51.824;4.682;2023-04-24T09:28:01;2.58;;;1.20;;
41115;SDS011;26861;51.824;4.682;2023-04-24T09:30:28;1.60;;;0.73;;
41115;SDS011;26861;51.824;4.682;2023-04-24T09:33:10;3.13;;;0.93;;
41115;SDS011;26861;51.824;4.682;2023-04-24T09:35:50;3.03;;;0.88;;
41115;SDS011;26861;51.824;4.682;2023-04-24T09:38:17;1.38;;;0.70;;
41115;SDS011;26861;51.824;4.682;2023-04-24T09:40:43;1.85;;;0.80;;
41115;SDS011;26861;51.824;4.682;2023-04-24T09:43:10;4.45;;;0.90;;
41115;SDS011;26861;51.824;4.682;2023-04-24T09:45:37;1.50;;;0.75;;
41115;SDS011;26861;51.824;4.682;2023-04-24T09:48:05;1.50;;;0.80;;
41115;SDS011;26861;51.824;4.682;2023-04-24T09:50:35;4.97;;;0.68;;
41115;SDS011;26861;51.824;4.682;2023-04-24T09:53:02;2.55;;;0.90;;
41115;SDS011;26861;51.824;4.682;2023-04-24T09:55:29;2.92;;;0.90;;
41115;SDS011;26861;51.824;4.682;2023-04-24T09:57:56;2.55;;;0.57;;
41115;SDS011;26861;51.824;4.682;2023-04-24T10:00:24;2.67;;;0.77;;
41115;SDS011;26861;51.824;4.682;2023-04-24T10:03:10;2.75;;;0.70;;
41115;SDS011;26861;51.824;4.682;2023-04-24T10:05:37;2.35;;;0.85;;
41115;SDS011;26861;51.824;4.682;2023-04-24T10:08:04;1.65;;;0.80;;
41115;SDS011;26861;51.824;4.682;2023-04-24T10:10:43;1.58;;;0.60;;
41115;SDS011;26861;51.824;4.682;2023-04-24T10:13:10;2.38;;;0.65;;
41115;SDS011;26861;51.824;4.682;2023-04-24T10:15:38;1.67;;;0.50;;
41115;SDS011;26861;51.824;4.682;2023-04-24T10:18:06;0.98;;;0.57;;
41115;SDS011;26861;51.824;4.682;2023-04-24T10:20:34;3.92;;;0.57;;
41115;SDS011;26861;51.824;4.682;2023-04-24T10:23:01;3.45;;;0.95;;
41115;SDS011;26861;51.824;4.682;2023-04-24T10:25:31;0.90;;;0.55;;
41115;SDS011;26861;51.824;4.682;2023-04-24T10:27:59;1.50;;;0.80;;
41115;SDS011;26861;51.824;4.682;2023-04-24T10:30:26;1.30;;;0.50;;
41115;SDS011;26861;51.824;4.682;2023-04-24T10:32:54;1.58;;;0.45;;
41115;SDS011;26861;51.824;4.682;2023-04-24T10:35:20;1.85;;;0.52;;
41115;SDS011;26861;51.824;4.682;2023-04-24T10:37:53;2.45;;;0.47;;
41115;SDS011;26861;51.824;4.682;2023-04-24T10:40:32;0.70;;;0.50;;
41115;SDS011;26861;51.824;4.682;2023-04-24T10:42:59;1.48;;;0.38;;
41115;SDS011;26861;51.824;4.682;2023-04-24T10:45:31;2.53;;;0.70;;
41115;SDS011;26861;51.824;4.682;2023-04-24T10:48:04;1.30;;;0.40;;
41115;SDS011;26861;51.824;4.682;2023-04-24T10:50:42;1.30;;;0.50;;
41115;SDS011;26861;51.824;4.682;2023-04-24T10:53:30;0.93;;;0.40;;
41115;SDS011;26861;51.824;4.682;2023-04-24T10:58:22;1.23;;;0.47;;
41115;SDS011;26861;51.824;4.682;2023-04-24T11:00:56;2.58;;;0.73;;
41115;SDS011;26861;51.824;4.682;2023-04-24T11:03:23;2.22;;;0.47;;
41115;SDS011;26861;51.824;4.682;2023-04-24T11:05:58;1.92;;;0.55;;
41115;SDS011;26861;51.824;4.682;2023-04-24T11:08:43;1.45;;;0.43;;
41115;SDS011;26861;51.824;4.682;2023-04-24T11:11:11;1.27;;;0.40;;
41115;SDS011;26861;51.824;4.682;2023-04-24T11:26:48;2.05;;;0.47;;
41115;SDS011;26861;51.824;4.682;2023-04-24T11:29:15;1.63;;;0.70;;
41115;SDS011;26861;51.824;4.682;2023-04-24T11:31:44;2.15;;;0.60;;
41115;SDS011;26861;51.824;4.682;2023-04-24T11:34:14;1.70;;;0.40;;
41115;SDS011;26861;51.824;4.682;2023-04-24T11:36:44;1.40;;;0.30;;
41115;SDS011;26861;51.824;4.682;2023-04-24T11:39:12;2.40;;;0.50;;
41115;SDS011;26861;51.824;4.682;2023-04-24T11:41:39;1.63;;;0.35;;
41115;SDS011;26861;51.824;4.682;2023-04-24T11:44:08;3.05;;;0.52;;
41115;SDS011;26861;51.824;4.682;2023-04-24T11:46:35;1.50;;;0.40;;
41115;SDS011;26861;51.824;4.682;2023-04-24T11:49:02;2.28;;;0.43;;
41115;SDS011;26861;51.824;4.682;2023-04-24T11:51:28;1.35;;;0.65;;
41115;SDS011;26861;51.824;4.682;2023-04-24T11:53:55;2.05;;;0.40;;
41115;SDS011;26861;51.824;4.682;2023-04-24T11:56:22;1.20;;;0.40;;
41115;SDS011;26861;51.824;4.682;2023-04-24T11:58:48;1.27;;;0.50;;
41115;SDS011;26861;51.824;4.682;2023-04-24T12:01:17;2.10;;;0.40;;
41115;SDS011;26861;51.824;4.682;2023-04-24T12:03:47;0.95;;;0.52;;
41115;SDS011;26861;51.824;4.682;2023-04-24T12:06:13;2.33;;;0.50;;
41115;SDS011;26861;51.824;4.682;2023-04-24T12:08:39;1.25;;;0.40;;
41115;SDS011;26861;51.824;4.682;2023-04-24T12:11:05;1.13;;;0.73;;
41115;SDS011;26861;51.824;4.682;2023-04-24T12:13:32;0.70;;;0.45;;
41115;SDS011;26861;51.824;4.682;2023-04-24T12:15:58;1.38;;;0.60;;
41115;SDS011;26861;51.824;4.682;2023-04-24T12:18:24;1.42;;;0.77;;
41115;SDS011;26861;51.824;4.682;2023-04-24T12:20:51;0.95;;;0.73;;
41115;SDS011;26861;51.824;4.682;2023-04-24T12:23:16;2.53;;;0.63;;
41115;SDS011;26861;51.824;4.682;2023-04-24T12:26:00;0.82;;;0.35;;
41115;SDS011;26861;51.824;4.682;2023-04-24T12:28:34;1.40;;;0.38;;
41115;SDS011;26861;51.824;4.682;2023-04-24T12:31:03;1.85;;;0.60;;
41115;SDS011;26861;51.824;4.682;2023-04-24T12:33:32;1.35;;;0.38;;
41115;SDS011;26861;51.824;4.682;2023-04-24T12:35:59;1.13;;;0.38;;
41115;SDS011;26861;51.824;4.682;2023-04-24T12:38:27;3.00;;;0.50;;
41115;SDS011;26861;51.824;4.682;2023-04-24T12:41:08;1.17;;;0.47;;
41115;SDS011;26861;51.824;4.682;2023-04-24T12:43:36;1.70;;;0.52;;
41115;SDS011;26861;51.824;4.682;2023-04-24T12:46:02;3.15;;;0.80;;
41115;SDS011;26861;51.824;4.682;2023-04-24T12:48:28;4.38;;;0.52;;
41115;SDS011;26861;51.824;4.682;2023-04-24T12:50:57;1.55;;;0.47;;
41115;SDS011;26861;51.824;4.682;2023-04-24T12:53:26;1.77;;;0.52;;
41115;SDS011;26861;51.824;4.682;2023-04-24T12:55:53;2.80;;;0.70;;
41115;SDS011;26861;51.824;4.682;2023-04-24T12:58:19;1.60;;;0.60;;
41115;SDS011;26861;51.824;4.682;2023-04-24T13:00:45;2.45;;;0.70;;
41115;SDS011;26861;51.824;4.682;2023-04-24T13:03:12;1.65;;;0.73;;
41115;SDS011;26861;51.824;4.682;2023-04-24T13:05:37;3.38;;;0.50;;
41115;SDS011;26861;51.824;4.682;2023-04-24T13:08:03;4.28;;;1.00;;
41115;SDS011;26861;51.824;4.682;2023-04-24T13:10:29;2.75;;;0.70;;
41115;SDS011;26861;51.824;4.682;2023-04-24T13:12:55;1.23;;;0.40;;
41115;SDS011;26861;51.824;4.682;2023-04-24T13:15:21;3.53;;;0.95;;
41115;SDS011;26861;51.824;4.682;2023-04-24T13:17:47;1.88;;;0.73;;
41115;SDS011;26861;51.824;4.682;2023-04-24T13:20:13;2.20;;;0.57;;
41115;SDS011;26861;51.824;4.682;2023-04-24T13:22:39;1.73;;;0.65;;
41115;SDS011;26861;51.824;4.682;2023-04-24T13:25:05;1.20;;;0.43;;
41115;SDS011;26861;51.824;4.682;2023-04-24T13:27:31;0.82;;;0.47;;
41115;SDS011;26861;51.824;4.682;2023-04-24T13:29:57;3.47;;;1.08;;
41115;SDS011;26861;51.824;4.682;2023-04-24T13:32:23;2.85;;;0.63;;
41115;SDS011;26861;51.824;4.682;2023-04-24T13:34:48;2.08;;;0.63;;
41115;SDS011;26861;51.824;4.682;2023-04-24T13:37:15;4.03;;;0.70;;
41115;SDS011;26861;51.824;4.682;2023-04-24T13:39:40;1.63;;;0.43;;
41115;SDS011;26861;51.824;4.682;2023-04-24T13:42:06;2.63;;;0.73;;
41115;SDS011;26861;51.824;4.682;2023-04-24T13:44:32;2.33;;;0.50;;
41115;SDS011;26861;51.824;4.682;2023-04-24T13:46:58;1.38;;;0.45;;
41115;SDS011;26861;51.824;4.682;2023-04-24T13:49:25;1.58;;;0.47;;
41115;SDS011;26861;51.824;4.682;2023-04-24T13:51:52;3.70;;;0.73;;
41115;SDS011;26861;51.824;4.682;2023-04-24T13:54:19;2.90;;;0.52;;
41115;SDS011;26861;51.824;4.682;2023-04-24T13:56:46;1.98;;;0.68;;
41115;SDS011;26861;51.824;4.682;2023-04-24T13:59:12;2.45;;;0.70;;
41115;SDS011;26861;51.824;4.682;2023-04-24T14:01:38;2.35;;;0.60;;
41115;SDS011;26861;51.824;4.682;2023-04-24T14:04:05;1.90;;;0.50;;
41115;SDS011;26861;51.824;4.682;2023-04-24T14:06:31;1.27;;;0.50;;
41115;SDS011;26861;51.824;4.682;2023-04-24T14:08:57;1.90;;;0.50;;
41115;SDS011;26861;51.824;4.682;2023-04-24T14:11:23;1.52;;;0.50;;
41115;SDS011;26861;51.824;4.682;2023-04-24T14:13:49;3.42;;;0.90;;
41115;SDS011;26861;51.824;4.682;2023-04-24T14:16:15;1.85;;;0.70;;
41115;SDS011;26861;51.824;4.682;2023-04-24T14:18:40;3.97;;;0.82;;
41115;SDS011;26861;51.824;4.682;2023-04-24T14:21:06;4.38;;;0.70;;
41115;SDS011;26861;51.824;4.682;2023-04-24T14:23:32;4.32;;;0.77;;
41115;SDS011;26861;51.824;4.682;2023-04-24T14:25:59;2.65;;;0.95;;
41115;SDS011;26861;51.824;4.682;2023-04-24T14:28:25;2.42;;;0.85;;
41115;SDS011;26861;51.824;4.682;2023-04-24T14:30:51;2.90;;;1.00;;
41115;SDS011;26861;51.824;4.682;2023-04-24T14:33:17;2.53;;;0.68;;
41115;SDS011;26861;51.824;4.682;2023-04-24T14:35:43;2.35;;;0.90;;
41115;SDS011;26861;51.824;4.682;2023-04-24T14:38:09;1.90;;;0.85;;
41115;SDS011;26861;51.824;4.682;2023-04-24T14:40:36;1.73;;;0.70;;
41115;SDS011;26861;51.824;4.682;2023-04-24T14:43:01;2.70;;;1.00;;
41115;SDS011;26861;51.824;4.682;2023-04-24T14:45:27;1.90;;;0.70;;
41115;SDS011;26861;51.824;4.682;2023-04-24T14:47:53;2.15;;;1.10;;
41115;SDS011;26861;51.824;4.682;2023-04-24T14:50:19;2.47;;;0.55;;
41115;SDS011;26861;51.824;4.682;2023-04-24T14:52:45;1.45;;;0.80;;
41115;SDS011;26861;51.824;4.682;2023-04-24T14:55:11;1.98;;;0.85;;
41115;SDS011;26861;51.824;4.682;2023-04-24T14:57:37;3.47;;;1.20;;
41115;SDS011;26861;51.824;4.682;2023-04-24T15:00:03;1.88;;;0.82;;
41115;SDS011;26861;51.824;4.682;2023-04-24T15:02:33;1.73;;;0.82;;
41115;SDS011;26861;51.824;4.682;2023-04-24T15:04:59;2.67;;;0.88;;
41115;SDS011;26861;51.824;4.682;2023-04-24T15:07:24;2.30;;;0.70;;